sensor_id;sensor_type;location;lat;lon;timestamp;P1;durP1;ratioP1;P2;durP2;ratioP2
49890;SDS011;35780;55.568;37.492;2022-12-18T00:00:43;22.98;;;12.40;;
49890;SDS011;35780;55.568;37.492;2022-12-18T00:03:09;23.98;;;15.23;;
49890;SDS011;35780;55.568;37.492;2022-12-18T00:05:35;19.58;;;12.05;;
49890;SDS011;35780;55.568;37.492;2022-12-18T00:08:01;23.15;;;13.82;;
49890;SDS011;35780;55.568;37.492;2022-12-18T00:10:27;22.20;;;12.98;;
49890;SDS011;35780;55.568;37.492;2022-12-18T00:12:53;23.17;;;14.00;;
49890;SDS011;35780;55.568;37.492;2022-12-18T00:15:18;20.63;;;13.15;;
49890;SDS011;35780;55.568;37.492;2022-12-18T00:17:44;21.38;;;12.02;;
49890;SDS011;35780;55.568;37.492;2022-12-18T00:20:10;21.38;;;13.00;;
49890;SDS011;35780;55.568;37.492;2022-12-18T00:22:35;23.17;;;13.25;;
49890;SDS011;35780;55.568;37.492;2022-12-18T00:25:01;20.25;;;11.85;;
49890;SDS011;35780;55.568;37.492;2022-12-18T00:27:28;16.40;;;9.43;;
49890;SDS011;35780;55.568;37.492;2022-12-18T00:29:54;17.95;;;11.80;;
49890;SDS011;35780;55.568;37.492;2022-12-18T00:32:19;24.67;;;12.77;;
49890;SDS011;35780;55.568;37.492;2022-12-18T00:34:45;18.15;;;10.25;;
49890;SDS011;35780;55.568;37.492;2022-12-18T00:37:10;19.33;;;12.00;;
49890;SDS011;35780;55.568;37.492;2022-12-18T00:39:36;22.05;;;11.95;;
49890;SDS011;35780;55.568;37.492;2022-12-18T00:42:01;17.80;;;9.60;;
49890;SDS011;35780;55.568;37.492;2022-12-18T00:44:46;19.52;;;11.27;;
49890;SDS011;35780;55.568;37.492;2022-12-18T00:47:11;18.05;;;9.65;;
49890;SDS011;35780;55.568;37.492;2022-12-18T00:49:37;19.65;;;10.32;;
49890;SDS011;35780;55.568;37.492;2022-12-18T00:52:02;19.02;;;11.15;;
49890;SDS011;35780;55.568;37.492;2022-12-18T00:54:28;17.95;;;10.68;;
49890;SDS011;35780;55.568;37.492;2022-12-18T00:56:54;19.00;;;11.57;;
49890;SDS011;35780;55.568;37.492;2022-12-18T00:59:20;17.10;;;10.30;;
49890;SDS011;35780;55.568;37.492;2022-12-18T01:01:46;21.92;;;10.85;;
49890;SDS011;35780;55.568;37.492;2022-12-18T01:04:12;14.32;;;9.00;;
49890;SDS011;35780;55.568;37.492;2022-12-18T01:06:37;15.32;;;9.45;;
49890;SDS011;35780;55.568;37.492;2022-12-18T01:09:03;20.20;;;11.13;;
49890;SDS011;35780;55.568;37.492;2022-12-18T01:11:29;14.80;;;7.50;;
49890;SDS011;35780;55.568;37.492;2022-12-18T01:13:55;16.27;;;9.95;;
49890;SDS011;35780;55.568;37.492;2022-12-18T01:16:21;16.13;;;8.23;;
49890;SDS011;35780;55.568;37.492;2022-12-18T01:18:47;15.43;;;8.45;;
49890;SDS011;35780;55.568;37.492;2022-12-18T01:21:14;17.00;;;9.70;;
49890;SDS011;35780;55.568;37.492;2022-12-18T01:23:40;17.27;;;10.43;;
49890;SDS011;35780;55.568;37.492;2022-12-18T01:26:10;16.90;;;10.10;;
49890;SDS011;35780;55.568;37.492;2022-12-18T01:28:37;16.00;;;9.65;;
49890;SDS011;35780;55.568;37.492;2022-12-18T01:31:14;15.68;;;9.80;;
49890;SDS011;35780;55.568;37.492;2022-12-18T01:33:41;15.88;;;8.00;;
49890;SDS011;35780;55.568;37.492;2022-12-18T01:36:07;17.38;;;10.38;;
49890;SDS011;35780;55.568;37.492;2022-12-18T01:38:34;19.42;;;10.82;;
49890;SDS011;35780;55.568;37.492;2022-12-18T01:41:00;17.83;;;9.73;;
49890;SDS011;35780;55.568;37.492;2022-12-18T01:46:10;16.60;;;10.05;;
49890;SDS011;35780;55.568;37.492;2022-12-18T01:48:35;17.38;;;10.30;;
49890;SDS011;35780;55.568;37.492;2022-12-18T01:51:01;16.13;;;10.50;;
49890;SDS011;35780;55.568;37.492;2022-12-18T01:53:27;23.40;;;10.70;;
49890;SDS011;35780;55.568;37.492;2022-12-18T01:55:54;17.48;;;10.38;;
49890;SDS011;35780;55.568;37.492;2022-12-18T02:01:15;18.50;;;11.45;;
49890;SDS011;35780;55.568;37.492;2022-12-18T02:03:41;21.17;;;11.48;;
49890;SDS011;35780;55.568;37.492;2022-12-18T02:09:02;14.98;;;9.43;;
49890;SDS011;35780;55.568;37.492;2022-12-18T02:16:58;15.00;;;9.00;;
49890;SDS011;35780;55.568;37.492;2022-12-18T02:22:24;16.23;;;10.02;;
49890;SDS011;35780;55.568;37.492;2022-12-18T02:27:48;13.82;;;8.57;;
49890;SDS011;35780;55.568;37.492;2022-12-18T02:30:14;20.17;;;10.50;;
49890;SDS011;35780;55.568;37.492;2022-12-18T02:32:42;14.43;;;9.00;;
49890;SDS011;35780;55.568;37.492;2022-12-18T02:35:12;17.65;;;10.30;;
49890;SDS011;35780;55.568;37.492;2022-12-18T02:37:40;14.35;;;9.00;;
49890;SDS011;35780;55.568;37.492;2022-12-18T02:40:07;14.25;;;8.55;;
49890;SDS011;35780;55.568;37.492;2022-12-18T02:42:33;19.73;;;10.95;;
49890;SDS011;35780;55.568;37.492;2022-12-18T02:44:59;17.85;;;8.88;;
49890;SDS011;35780;55.568;37.492;2022-12-18T02:47:27;15.50;;;8.88;;
49890;SDS011;35780;55.568;37.492;2022-12-18T02:52:41;12.77;;;8.05;;
49890;SDS011;35780;55.568;37.492;2022-12-18T02:55:46;16.67;;;10.73;;
49890;SDS011;35780;55.568;37.492;2022-12-18T02:59:35;13.60;;;7.97;;
49890;SDS011;35780;55.568;37.492;2022-12-18T03:04:20;15.75;;;9.90;;
49890;SDS011;35780;55.568;37.492;2022-12-18T03:06:53;17.60;;;9.27;;
49890;SDS011;35780;55.568;37.492;2022-12-18T03:09:22;18.90;;;10.35;;
49890;SDS011;35780;55.568;37.492;2022-12-18T03:17:25;16.98;;;9.75;;
49890;SDS011;35780;55.568;37.492;2022-12-18T03:19:52;14.20;;;7.93;;
49890;SDS011;35780;55.568;37.492;2022-12-18T03:22:18;18.23;;;9.70;;
49890;SDS011;35780;55.568;37.492;2022-12-18T03:24:45;17.60;;;8.93;;
49890;SDS011;35780;55.568;37.492;2022-12-18T03:27:12;17.25;;;9.32;;
49890;SDS011;35780;55.568;37.492;2022-12-18T03:29:42;13.23;;;7.22;;
49890;SDS011;35780;55.568;37.492;2022-12-18T03:32:11;15.88;;;9.65;;
49890;SDS011;35780;55.568;37.492;2022-12-18T03:34:41;15.15;;;8.45;;
49890;SDS011;35780;55.568;37.492;2022-12-18T03:37:08;15.77;;;8.48;;
49890;SDS011;35780;55.568;37.492;2022-12-18T03:39:34;15.38;;;8.68;;
49890;SDS011;35780;55.568;37.492;2022-12-18T03:42:03;19.50;;;9.43;;
49890;SDS011;35780;55.568;37.492;2022-12-18T03:44:35;18.00;;;8.13;;
49890;SDS011;35780;55.568;37.492;2022-12-18T03:47:11;15.32;;;10.23;;
49890;SDS011;35780;55.568;37.492;2022-12-18T03:54:46;14.90;;;9.02;;
49890;SDS011;35780;55.568;37.492;2022-12-18T03:57:19;12.43;;;8.30;;
49890;SDS011;35780;55.568;37.492;2022-12-18T03:59:46;12.68;;;7.75;;
49890;SDS011;35780;55.568;37.492;2022-12-18T04:02:15;15.15;;;9.00;;
49890;SDS011;35780;55.568;37.492;2022-12-18T04:04:41;18.90;;;8.57;;
49890;SDS011;35780;55.568;37.492;2022-12-18T04:07:08;12.68;;;9.00;;
49890;SDS011;35780;55.568;37.492;2022-12-18T04:09:34;16.95;;;8.23;;
49890;SDS011;35780;55.568;37.492;2022-12-18T04:12:00;16.73;;;9.75;;
49890;SDS011;35780;55.568;37.492;2022-12-18T04:14:26;17.50;;;9.05;;
49890;SDS011;35780;55.568;37.492;2022-12-18T04:16:51;15.55;;;9.25;;
49890;SDS011;35780;55.568;37.492;2022-12-18T04:19:17;14.77;;;8.57;;
49890;SDS011;35780;55.568;37.492;2022-12-18T04:21:42;13.23;;;8.77;;
49890;SDS011;35780;55.568;37.492;2022-12-18T04:24:08;18.73;;;9.13;;
49890;SDS011;35780;55.568;37.492;2022-12-18T04:26:33;13.88;;;9.20;;
49890;SDS011;35780;55.568;37.492;2022-12-18T04:28:59;14.38;;;7.30;;
49890;SDS011;35780;55.568;37.492;2022-12-18T04:31:25;13.25;;;6.43;;
49890;SDS011;35780;55.568;37.492;2022-12-18T04:33:50;14.07;;;9.00;;
49890;SDS011;35780;55.568;37.492;2022-12-18T04:36:16;15.23;;;8.75;;
49890;SDS011;35780;55.568;37.492;2022-12-18T04:38:41;15.27;;;9.15;;
49890;SDS011;35780;55.568;37.492;2022-12-18T04:41:07;13.43;;;8.65;;
49890;SDS011;35780;55.568;37.492;2022-12-18T04:43:33;14.45;;;8.52;;
49890;SDS011;35780;55.568;37.492;2022-12-18T04:46:05;15.55;;;9.00;;
49890;SDS011;35780;55.568;37.492;2022-12-18T04:48:31;13.45;;;8.02;;
49890;SDS011;35780;55.568;37.492;2022-12-18T04:50:57;12.48;;;6.60;;
49890;SDS011;35780;55.568;37.492;2022-12-18T04:53:23;14.05;;;7.47;;
49890;SDS011;35780;55.568;37.492;2022-12-18T04:55:48;13.98;;;7.65;;
49890;SDS011;35780;55.568;37.492;2022-12-18T04:58:14;12.45;;;7.75;;
49890;SDS011;35780;55.568;37.492;2022-12-18T05:00:40;12.68;;;7.75;;
49890;SDS011;35780;55.568;37.492;2022-12-18T05:03:05;15.07;;;8.32;;
49890;SDS011;35780;55.568;37.492;2022-12-18T05:05:31;15.85;;;8.25;;
49890;SDS011;35780;55.568;37.492;2022-12-18T05:07:56;14.40;;;8.63;;
49890;SDS011;35780;55.568;37.492;2022-12-18T05:10:22;13.25;;;8.15;;
49890;SDS011;35780;55.568;37.492;2022-12-18T05:12:48;15.23;;;7.00;;
49890;SDS011;35780;55.568;37.492;2022-12-18T05:15:31;13.55;;;6.85;;
49890;SDS011;35780;55.568;37.492;2022-12-18T05:17:58;12.07;;;6.32;;
49890;SDS011;35780;55.568;37.492;2022-12-18T05:20:24;11.45;;;6.38;;
49890;SDS011;35780;55.568;37.492;2022-12-18T05:22:51;13.27;;;7.68;;
49890;SDS011;35780;55.568;37.492;2022-12-18T05:25:17;9.25;;;5.65;;
49890;SDS011;35780;55.568;37.492;2022-12-18T05:27:43;12.02;;;7.28;;
49890;SDS011;35780;55.568;37.492;2022-12-18T05:30:10;14.30;;;7.82;;
49890;SDS011;35780;55.568;37.492;2022-12-18T05:32:36;11.30;;;6.20;;
49890;SDS011;35780;55.568;37.492;2022-12-18T05:35:02;10.60;;;6.65;;
49890;SDS011;35780;55.568;37.492;2022-12-18T05:37:28;12.95;;;8.27;;
49890;SDS011;35780;55.568;37.492;2022-12-18T05:39:54;11.73;;;7.35;;
49890;SDS011;35780;55.568;37.492;2022-12-18T05:42:19;13.95;;;8.32;;
49890;SDS011;35780;55.568;37.492;2022-12-18T05:44:45;14.18;;;7.72;;
49890;SDS011;35780;55.568;37.492;2022-12-18T05:47:10;13.75;;;7.55;;
49890;SDS011;35780;55.568;37.492;2022-12-18T05:49:36;14.23;;;8.25;;
49890;SDS011;35780;55.568;37.492;2022-12-18T05:52:01;16.75;;;9.10;;
49890;SDS011;35780;55.568;37.492;2022-12-18T05:54:27;12.57;;;7.78;;
49890;SDS011;35780;55.568;37.492;2022-12-18T05:56:53;11.65;;;7.75;;
49890;SDS011;35780;55.568;37.492;2022-12-18T05:59:19;11.90;;;6.95;;
49890;SDS011;35780;55.568;37.492;2022-12-18T06:01:45;13.75;;;8.10;;
49890;SDS011;35780;55.568;37.492;2022-12-18T06:04:10;11.30;;;6.30;;
49890;SDS011;35780;55.568;37.492;2022-12-18T06:06:36;20.90;;;8.77;;
49890;SDS011;35780;55.568;37.492;2022-12-18T06:09:01;15.20;;;8.55;;
49890;SDS011;35780;55.568;37.492;2022-12-18T06:11:33;11.55;;;7.20;;
49890;SDS011;35780;55.568;37.492;2022-12-18T06:14:00;12.35;;;7.28;;
49890;SDS011;35780;55.568;37.492;2022-12-18T06:16:27;14.85;;;8.13;;
49890;SDS011;35780;55.568;37.492;2022-12-18T06:18:53;15.32;;;8.48;;
49890;SDS011;35780;55.568;37.492;2022-12-18T06:21:21;16.30;;;9.05;;
49890;SDS011;35780;55.568;37.492;2022-12-18T06:23:47;13.55;;;8.25;;
49890;SDS011;35780;55.568;37.492;2022-12-18T06:26:12;13.27;;;7.85;;
49890;SDS011;35780;55.568;37.492;2022-12-18T06:28:38;11.90;;;7.28;;
49890;SDS011;35780;55.568;37.492;2022-12-18T06:31:04;12.45;;;7.80;;
49890;SDS011;35780;55.568;37.492;2022-12-18T06:33:31;13.05;;;7.82;;
49890;SDS011;35780;55.568;37.492;2022-12-18T06:36:03;13.73;;;8.05;;
49890;SDS011;35780;55.568;37.492;2022-12-18T06:38:31;13.15;;;7.20;;
49890;SDS011;35780;55.568;37.492;2022-12-18T06:40:57;11.57;;;6.57;;
49890;SDS011;35780;55.568;37.492;2022-12-18T06:43:23;12.43;;;8.40;;
49890;SDS011;35780;55.568;37.492;2022-12-18T06:45:49;16.17;;;8.32;;
49890;SDS011;35780;55.568;37.492;2022-12-18T06:48:20;13.25;;;7.72;;
49890;SDS011;35780;55.568;37.492;2022-12-18T06:50:46;13.73;;;8.20;;
49890;SDS011;35780;55.568;37.492;2022-12-18T06:53:12;12.75;;;7.93;;
49890;SDS011;35780;55.568;37.492;2022-12-18T06:55:37;16.48;;;7.07;;
49890;SDS011;35780;55.568;37.492;2022-12-18T06:58:03;13.48;;;7.80;;
49890;SDS011;35780;55.568;37.492;2022-12-18T07:00:28;12.32;;;7.55;;
49890;SDS011;35780;55.568;37.492;2022-12-18T07:02:54;12.52;;;7.25;;
49890;SDS011;35780;55.568;37.492;2022-12-18T07:05:19;11.98;;;7.25;;
49890;SDS011;35780;55.568;37.492;2022-12-18T07:07:45;10.68;;;6.68;;
49890;SDS011;35780;55.568;37.492;2022-12-18T07:10:11;11.93;;;7.63;;
49890;SDS011;35780;55.568;37.492;2022-12-18T07:12:36;11.38;;;6.18;;
49890;SDS011;35780;55.568;37.492;2022-12-18T07:15:02;18.35;;;7.50;;
49890;SDS011;35780;55.568;37.492;2022-12-18T07:17:29;12.27;;;7.43;;
49890;SDS011;35780;55.568;37.492;2022-12-18T07:19:54;14.35;;;7.45;;
49890;SDS011;35780;55.568;37.492;2022-12-18T07:22:20;13.02;;;6.82;;
49890;SDS011;35780;55.568;37.492;2022-12-18T07:24:46;12.77;;;7.70;;
49890;SDS011;35780;55.568;37.492;2022-12-18T07:27:14;10.93;;;7.07;;
49890;SDS011;35780;55.568;37.492;2022-12-18T07:29:40;15.18;;;7.22;;
49890;SDS011;35780;55.568;37.492;2022-12-18T07:32:05;10.82;;;7.03;;
49890;SDS011;35780;55.568;37.492;2022-12-18T07:34:32;12.95;;;7.15;;
49890;SDS011;35780;55.568;37.492;2022-12-18T07:36:57;14.52;;;7.30;;
49890;SDS011;35780;55.568;37.492;2022-12-18T07:39:23;10.00;;;6.95;;
49890;SDS011;35780;55.568;37.492;2022-12-18T07:41:51;14.50;;;6.97;;
49890;SDS011;35780;55.568;37.492;2022-12-18T07:44:42;11.13;;;6.47;;
49890;SDS011;35780;55.568;37.492;2022-12-18T07:47:08;14.40;;;7.47;;
49890;SDS011;35780;55.568;37.492;2022-12-18T07:49:34;12.27;;;6.88;;
49890;SDS011;35780;55.568;37.492;2022-12-18T07:51:59;11.98;;;7.32;;
49890;SDS011;35780;55.568;37.492;2022-12-18T07:54:25;12.38;;;6.47;;
49890;SDS011;35780;55.568;37.492;2022-12-18T07:56:51;11.77;;;6.82;;
49890;SDS011;35780;55.568;37.492;2022-12-18T07:59:17;13.35;;;7.93;;
49890;SDS011;35780;55.568;37.492;2022-12-18T08:01:43;11.02;;;5.95;;
49890;SDS011;35780;55.568;37.492;2022-12-18T08:04:08;10.25;;;6.22;;
49890;SDS011;35780;55.568;37.492;2022-12-18T08:06:34;11.38;;;7.63;;
49890;SDS011;35780;55.568;37.492;2022-12-18T08:09:00;12.13;;;7.13;;
49890;SDS011;35780;55.568;37.492;2022-12-18T08:11:26;11.50;;;6.97;;
49890;SDS011;35780;55.568;37.492;2022-12-18T08:13:53;8.23;;;4.85;;
49890;SDS011;35780;55.568;37.492;2022-12-18T08:16:19;10.88;;;6.53;;
49890;SDS011;35780;55.568;37.492;2022-12-18T08:18:46;11.93;;;6.60;;
49890;SDS011;35780;55.568;37.492;2022-12-18T08:21:13;12.40;;;7.43;;
49890;SDS011;35780;55.568;37.492;2022-12-18T08:23:40;12.10;;;6.70;;
49890;SDS011;35780;55.568;37.492;2022-12-18T08:26:07;11.38;;;6.88;;
49890;SDS011;35780;55.568;37.492;2022-12-18T08:28:33;11.55;;;6.28;;
49890;SDS011;35780;55.568;37.492;2022-12-18T08:30:59;11.40;;;5.93;;
49890;SDS011;35780;55.568;37.492;2022-12-18T08:33:27;12.18;;;7.40;;
49890;SDS011;35780;55.568;37.492;2022-12-18T08:35:52;11.48;;;7.32;;
49890;SDS011;35780;55.568;37.492;2022-12-18T08:38:18;11.05;;;6.13;;
49890;SDS011;35780;55.568;37.492;2022-12-18T08:40:44;12.20;;;7.35;;
49890;SDS011;35780;55.568;37.492;2022-12-18T08:43:10;14.68;;;7.95;;
49890;SDS011;35780;55.568;37.492;2022-12-18T08:45:54;13.65;;;6.78;;
49890;SDS011;35780;55.568;37.492;2022-12-18T08:48:20;13.50;;;7.25;;
49890;SDS011;35780;55.568;37.492;2022-12-18T08:50:58;11.20;;;7.10;;
49890;SDS011;35780;55.568;37.492;2022-12-18T08:53:25;12.65;;;6.40;;
49890;SDS011;35780;55.568;37.492;2022-12-18T08:55:51;11.15;;;6.90;;
49890;SDS011;35780;55.568;37.492;2022-12-18T08:58:17;12.20;;;7.00;;
49890;SDS011;35780;55.568;37.492;2022-12-18T09:00:43;9.55;;;5.45;;
49890;SDS011;35780;55.568;37.492;2022-12-18T09:03:15;10.63;;;5.72;;
49890;SDS011;35780;55.568;37.492;2022-12-18T09:05:41;11.90;;;7.22;;
49890;SDS011;35780;55.568;37.492;2022-12-18T09:08:07;12.50;;;6.65;;
49890;SDS011;35780;55.568;37.492;2022-12-18T09:10:33;11.52;;;7.00;;
49890;SDS011;35780;55.568;37.492;2022-12-18T09:12:59;10.50;;;6.47;;
49890;SDS011;35780;55.568;37.492;2022-12-18T09:15:25;11.50;;;6.13;;
49890;SDS011;35780;55.568;37.492;2022-12-18T09:17:50;11.40;;;6.05;;
49890;SDS011;35780;55.568;37.492;2022-12-18T09:20:18;14.27;;;8.05;;
49890;SDS011;35780;55.568;37.492;2022-12-18T09:22:44;10.80;;;5.47;;
49890;SDS011;35780;55.568;37.492;2022-12-18T09:25:09;15.18;;;7.18;;
49890;SDS011;35780;55.568;37.492;2022-12-18T09:27:35;11.63;;;6.25;;
49890;SDS011;35780;55.568;37.492;2022-12-18T09:30:01;11.90;;;6.43;;
49890;SDS011;35780;55.568;37.492;2022-12-18T09:32:28;11.38;;;6.80;;
49890;SDS011;35780;55.568;37.492;2022-12-18T09:34:54;10.25;;;6.18;;
49890;SDS011;35780;55.568;37.492;2022-12-18T09:37:19;13.40;;;6.15;;
49890;SDS011;35780;55.568;37.492;2022-12-18T09:39:45;12.75;;;5.93;;
49890;SDS011;35780;55.568;37.492;2022-12-18T09:42:19;12.52;;;6.53;;
49890;SDS011;35780;55.568;37.492;2022-12-18T09:44:50;12.15;;;7.00;;
49890;SDS011;35780;55.568;37.492;2022-12-18T09:47:25;10.27;;;6.57;;
49890;SDS011;35780;55.568;37.492;2022-12-18T09:50:29;13.23;;;7.55;;
49890;SDS011;35780;55.568;37.492;2022-12-18T09:52:57;12.82;;;7.05;;
49890;SDS011;35780;55.568;37.492;2022-12-18T09:55:41;11.23;;;6.88;;
49890;SDS011;35780;55.568;37.492;2022-12-18T10:00:54;10.18;;;6.28;;
49890;SDS011;35780;55.568;37.492;2022-12-18T10:03:20;15.02;;;7.30;;
49890;SDS011;35780;55.568;37.492;2022-12-18T10:09:14;11.05;;;6.53;;
49890;SDS011;35780;55.568;37.492;2022-12-18T10:11:52;11.73;;;5.88;;
49890;SDS011;35780;55.568;37.492;2022-12-18T10:14:28;10.98;;;6.90;;
49890;SDS011;35780;55.568;37.492;2022-12-18T10:17:11;10.90;;;6.63;;
49890;SDS011;35780;55.568;37.492;2022-12-18T10:19:43;10.85;;;5.97;;
49890;SDS011;35780;55.568;37.492;2022-12-18T10:28:13;12.98;;;7.57;;
49890;SDS011;35780;55.568;37.492;2022-12-18T10:30:41;11.35;;;6.80;;
49890;SDS011;35780;55.568;37.492;2022-12-18T10:33:10;10.80;;;6.43;;
49890;SDS011;35780;55.568;37.492;2022-12-18T10:35:37;12.82;;;8.18;;
49890;SDS011;35780;55.568;37.492;2022-12-18T10:38:20;12.30;;;7.05;;
49890;SDS011;35780;55.568;37.492;2022-12-18T10:40:49;7.75;;;5.53;;
49890;SDS011;35780;55.568;37.492;2022-12-18T10:43:41;10.30;;;5.55;;
49890;SDS011;35780;55.568;37.492;2022-12-18T10:48:33;9.07;;;5.50;;
49890;SDS011;35780;55.568;37.492;2022-12-18T10:50:59;11.07;;;6.18;;
49890;SDS011;35780;55.568;37.492;2022-12-18T10:53:26;10.13;;;6.25;;
49890;SDS011;35780;55.568;37.492;2022-12-18T10:55:53;12.98;;;7.05;;
49890;SDS011;35780;55.568;37.492;2022-12-18T10:58:25;12.68;;;6.85;;
49890;SDS011;35780;55.568;37.492;2022-12-18T11:01:13;13.10;;;6.07;;
49890;SDS011;35780;55.568;37.492;2022-12-18T11:03:44;11.85;;;5.70;;
49890;SDS011;35780;55.568;37.492;2022-12-18T11:06:20;11.25;;;6.70;;
49890;SDS011;35780;55.568;37.492;2022-12-18T11:09:00;13.95;;;6.82;;
49890;SDS011;35780;55.568;37.492;2022-12-18T11:11:27;14.57;;;7.38;;
49890;SDS011;35780;55.568;37.492;2022-12-18T11:16:43;13.18;;;6.88;;
49890;SDS011;35780;55.568;37.492;2022-12-18T11:22:26;11.65;;;5.85;;
49890;SDS011;35780;55.568;37.492;2022-12-18T11:25:03;11.00;;;6.30;;
49890;SDS011;35780;55.568;37.492;2022-12-18T11:27:31;10.80;;;6.60;;
49890;SDS011;35780;55.568;37.492;2022-12-18T11:35:48;13.18;;;7.45;;
49890;SDS011;35780;55.568;37.492;2022-12-18T11:44:32;15.43;;;6.18;;
49890;SDS011;35780;55.568;37.492;2022-12-18T11:50:01;11.35;;;6.53;;
49890;SDS011;35780;55.568;37.492;2022-12-18T11:52:33;11.30;;;5.53;;
49890;SDS011;35780;55.568;37.492;2022-12-18T11:55:04;9.37;;;6.40;;
49890;SDS011;35780;55.568;37.492;2022-12-18T12:00:22;9.32;;;6.03;;
49890;SDS011;35780;55.568;37.492;2022-12-18T12:05:36;13.40;;;6.85;;
49890;SDS011;35780;55.568;37.492;2022-12-18T12:08:10;10.55;;;5.18;;
49890;SDS011;35780;55.568;37.492;2022-12-18T12:13:23;13.40;;;5.97;;
49890;SDS011;35780;55.568;37.492;2022-12-18T12:21:42;15.63;;;7.28;;
49890;SDS011;35780;55.568;37.492;2022-12-18T12:24:17;11.35;;;6.57;;
49890;SDS011;35780;55.568;37.492;2022-12-18T12:29:41;10.15;;;5.90;;
49890;SDS011;35780;55.568;37.492;2022-12-18T12:35:01;10.68;;;5.78;;
49890;SDS011;35780;55.568;37.492;2022-12-18T12:40:52;12.25;;;6.15;;
49890;SDS011;35780;55.568;37.492;2022-12-18T12:48:52;10.88;;;5.47;;
49890;SDS011;35780;55.568;37.492;2022-12-18T12:51:34;10.45;;;5.53;;
49890;SDS011;35780;55.568;37.492;2022-12-18T12:54:01;9.50;;;5.45;;
49890;SDS011;35780;55.568;37.492;2022-12-18T12:56:40;9.27;;;5.18;;
49890;SDS011;35780;55.568;37.492;2022-12-18T12:59:22;10.18;;;4.32;;
49890;SDS011;35780;55.568;37.492;2022-12-18T13:15:37;11.95;;;6.13;;
49890;SDS011;35780;55.568;37.492;2022-12-18T13:25:58;8.60;;;4.63;;
49890;SDS011;35780;55.568;37.492;2022-12-18T13:31:01;12.63;;;6.35;;
49890;SDS011;35780;55.568;37.492;2022-12-18T13:33:46;12.27;;;6.20;;
49890;SDS011;35780;55.568;37.492;2022-12-18T13:36:32;10.45;;;5.22;;
49890;SDS011;35780;55.568;37.492;2022-12-18T13:39:09;18.33;;;5.82;;
49890;SDS011;35780;55.568;37.492;2022-12-18T13:41:41;16.95;;;6.88;;
49890;SDS011;35780;55.568;37.492;2022-12-18T13:44:11;16.00;;;7.50;;
49890;SDS011;35780;55.568;37.492;2022-12-18T13:46:50;14.43;;;5.63;;
49890;SDS011;35780;55.568;37.492;2022-12-18T13:51:43;16.88;;;7.97;;
49890;SDS011;35780;55.568;37.492;2022-12-18T13:54:30;16.45;;;7.80;;
49890;SDS011;35780;55.568;37.492;2022-12-18T13:59:53;20.85;;;9.65;;
49890;SDS011;35780;55.568;37.492;2022-12-18T14:02:22;23.25;;;10.32;;
49890;SDS011;35780;55.568;37.492;2022-12-18T14:04:50;18.05;;;9.40;;
49890;SDS011;35780;55.568;37.492;2022-12-18T14:07:25;23.42;;;7.97;;
49890;SDS011;35780;55.568;37.492;2022-12-18T14:09:52;24.67;;;11.55;;
49890;SDS011;35780;55.568;37.492;2022-12-18T14:12:21;18.55;;;9.52;;
49890;SDS011;35780;55.568;37.492;2022-12-18T14:15:23;24.02;;;11.73;;
49890;SDS011;35780;55.568;37.492;2022-12-18T14:17:59;28.33;;;10.35;;
49890;SDS011;35780;55.568;37.492;2022-12-18T14:20:27;23.75;;;11.02;;
49890;SDS011;35780;55.568;37.492;2022-12-18T14:22:55;21.17;;;10.20;;
49890;SDS011;35780;55.568;37.492;2022-12-18T14:25:22;27.27;;;11.85;;
49890;SDS011;35780;55.568;37.492;2022-12-18T14:27:53;19.05;;;9.05;;
49890;SDS011;35780;55.568;37.492;2022-12-18T14:30:30;23.80;;;10.75;;
49890;SDS011;35780;55.568;37.492;2022-12-18T14:35:31;17.67;;;8.43;;
49890;SDS011;35780;55.568;37.492;2022-12-18T14:40:37;18.48;;;9.52;;
49890;SDS011;35780;55.568;37.492;2022-12-18T14:43:02;18.23;;;9.90;;
49890;SDS011;35780;55.568;37.492;2022-12-18T14:45:38;16.55;;;9.02;;
49890;SDS011;35780;55.568;37.492;2022-12-18T14:48:31;17.63;;;9.40;;
49890;SDS011;35780;55.568;37.492;2022-12-18T14:51:02;25.02;;;7.40;;
49890;SDS011;35780;55.568;37.492;2022-12-18T14:53:37;19.00;;;8.32;;
49890;SDS011;35780;55.568;37.492;2022-12-18T14:56:18;16.13;;;8.50;;
49890;SDS011;35780;55.568;37.492;2022-12-18T14:59:04;19.52;;;8.95;;
49890;SDS011;35780;55.568;37.492;2022-12-18T15:01:37;16.08;;;8.60;;
49890;SDS011;35780;55.568;37.492;2022-12-18T15:04:26;16.08;;;9.05;;
49890;SDS011;35780;55.568;37.492;2022-12-18T15:10:08;12.13;;;5.88;;
49890;SDS011;35780;55.568;37.492;2022-12-18T15:12:48;14.65;;;7.00;;
49890;SDS011;35780;55.568;37.492;2022-12-18T15:17:59;15.23;;;7.95;;
49890;SDS011;35780;55.568;37.492;2022-12-18T15:20:24;15.40;;;8.65;;
49890;SDS011;35780;55.568;37.492;2022-12-18T15:22:50;10.38;;;5.07;;
49890;SDS011;35780;55.568;37.492;2022-12-18T15:25:49;14.65;;;6.32;;
49890;SDS011;35780;55.568;37.492;2022-12-18T15:28:21;13.10;;;6.35;;
49890;SDS011;35780;55.568;37.492;2022-12-18T15:30:58;11.32;;;6.00;;
49890;SDS011;35780;55.568;37.492;2022-12-18T15:33:30;10.60;;;5.30;;
49890;SDS011;35780;55.568;37.492;2022-12-18T15:35:58;12.13;;;6.57;;
49890;SDS011;35780;55.568;37.492;2022-12-18T15:38:33;11.95;;;6.15;;
49890;SDS011;35780;55.568;37.492;2022-12-18T15:40:59;12.98;;;6.20;;
49890;SDS011;35780;55.568;37.492;2022-12-18T15:43:25;11.50;;;5.18;;
49890;SDS011;35780;55.568;37.492;2022-12-18T15:48:50;11.95;;;5.97;;
49890;SDS011;35780;55.568;37.492;2022-12-18T15:51:31;8.15;;;4.50;;
49890;SDS011;35780;55.568;37.492;2022-12-18T15:53:58;12.25;;;7.25;;
49890;SDS011;35780;55.568;37.492;2022-12-18T15:56:25;15.85;;;7.07;;
49890;SDS011;35780;55.568;37.492;2022-12-18T15:59:11;14.52;;;7.75;;
49890;SDS011;35780;55.568;37.492;2022-12-18T16:01:41;14.55;;;7.55;;
49890;SDS011;35780;55.568;37.492;2022-12-18T16:04:10;14.98;;;7.40;;
49890;SDS011;35780;55.568;37.492;2022-12-18T16:06:37;13.05;;;7.72;;
49890;SDS011;35780;55.568;37.492;2022-12-18T16:09:03;14.73;;;7.97;;
49890;SDS011;35780;55.568;37.492;2022-12-18T16:11:33;14.77;;;7.25;;
49890;SDS011;35780;55.568;37.492;2022-12-18T16:14:10;11.65;;;7.35;;
49890;SDS011;35780;55.568;37.492;2022-12-18T16:16:45;14.67;;;7.50;;
49890;SDS011;35780;55.568;37.492;2022-12-18T16:19:12;12.43;;;6.93;;
49890;SDS011;35780;55.568;37.492;2022-12-18T16:21:38;15.27;;;7.60;;
49890;SDS011;35780;55.568;37.492;2022-12-18T16:24:04;13.23;;;7.95;;
49890;SDS011;35780;55.568;37.492;2022-12-18T16:26:30;12.20;;;5.97;;
49890;SDS011;35780;55.568;37.492;2022-12-18T16:28:55;15.68;;;7.45;;
49890;SDS011;35780;55.568;37.492;2022-12-18T16:31:21;9.48;;;5.82;;
49890;SDS011;35780;55.568;37.492;2022-12-18T16:33:46;11.07;;;6.60;;
49890;SDS011;35780;55.568;37.492;2022-12-18T16:36:12;13.27;;;7.05;;
49890;SDS011;35780;55.568;37.492;2022-12-18T16:38:37;14.30;;;7.20;;
49890;SDS011;35780;55.568;37.492;2022-12-18T16:41:06;13.00;;;7.00;;
49890;SDS011;35780;55.568;37.492;2022-12-18T16:43:58;11.27;;;6.20;;
49890;SDS011;35780;55.568;37.492;2022-12-18T16:46:24;11.05;;;6.15;;
49890;SDS011;35780;55.568;37.492;2022-12-18T16:48:50;13.25;;;5.70;;
49890;SDS011;35780;55.568;37.492;2022-12-18T16:51:15;15.52;;;7.40;;
49890;SDS011;35780;55.568;37.492;2022-12-18T16:53:41;13.65;;;6.93;;
49890;SDS011;35780;55.568;37.492;2022-12-18T16:56:06;11.43;;;6.80;;